createdAt,value
2022-10-22T00:03:03.517Z,72.53
2022-10-22T00:06:24.202Z,72.27
2022-10-22T00:10:21.167Z,71.91
2022-10-22T00:13:42.490Z,71.72
2022-10-22T00:17:19.603Z,71.93
2022-10-22T00:20:57.166Z,72.32
2022-10-22T00:24:36.447Z,72.29
2022-10-22T00:28:12.748Z,72.17
2022-10-22T00:32:09.433Z,71.92
2022-10-22T00:35:30.386Z,71.79
2022-10-22T00:39:08.121Z,71.57
2022-10-22T00:42:45.702Z,71.34
2022-10-22T00:46:43.869Z,71.71
2022-10-22T00:50:08.216Z,72.19
2022-10-22T00:53:47.994Z,72.59
2022-10-22T00:57:21.232Z,72.71
2022-10-22T01:00:58.556Z,72.48
2022-10-22T01:04:35.176Z,72.21
2022-10-22T01:09:00.739Z,72.23
2022-10-22T01:13:07.031Z,72.18
2022-10-22T01:16:34.606Z,71.87
2022-10-22T01:20:59.612Z,72.10
2022-10-22T01:24:42.227Z,72.32
2022-10-22T01:28:42.254Z,72.79
2022-10-22T01:32:11.055Z,73.21
2022-10-22T01:35:45.095Z,73.15
2022-10-22T01:39:20.288Z,73.13
2022-10-22T01:43:16.194Z,73.01
2022-10-22T01:46:37.902Z,73.11
2022-10-22T01:51:15.408Z,73.56
2022-10-22T01:54:45.476Z,73.75
2022-10-22T01:58:35.854Z,74.00
2022-10-22T02:02:43.889Z,74.03
2022-10-22T02:06:14.117Z,73.89
2022-10-22T02:09:43.919Z,73.70
2022-10-22T02:13:31.555Z,73.64
2022-10-22T02:16:59.928Z,73.66
2022-10-22T02:20:55.397Z,74.00
2022-10-22T02:24:17.976Z,74.14
2022-10-22T02:28:21.488Z,74.38
2022-10-22T02:32:05.275Z,74.22
2022-10-22T02:35:27.977Z,74.05
2022-10-22T02:39:04.339Z,73.90
2022-10-22T02:42:43.248Z,73.67
2022-10-22T02:46:19.301Z,73.56
2022-10-22T02:49:56.787Z,73.56
2022-10-22T02:53:34.404Z,73.57
2022-10-22T02:57:12.104Z,74.08
2022-10-22T03:00:49.776Z,74.31
2022-10-22T03:04:27.341Z,74.73
2022-10-22T03:08:23.846Z,74.61
2022-10-22T03:12:03.309Z,74.45
2022-10-22T03:15:24.742Z,74.59
2022-10-22T03:19:02.668Z,74.36
2022-10-22T03:22:42.492Z,74.44
2022-10-22T03:26:18.785Z,74.75
2022-10-22T03:29:56.918Z,75.40
2022-10-22T03:33:33.014Z,75.57
2022-10-22T03:37:29.675Z,75.36
2022-10-22T03:40:50.538Z,75.13
2022-10-22T03:44:28.711Z,74.86
2022-10-22T03:48:05.801Z,74.60
2022-10-22T03:51:43.656Z,74.69
2022-10-22T03:55:41.009Z,75.22
2022-10-22T03:59:02.025Z,75.66
2022-10-22T04:02:39.545Z,75.62
2022-10-22T04:06:17.298Z,75.40
2022-10-22T04:09:54.860Z,75.06
2022-10-22T04:13:32.625Z,75.10
2022-10-22T04:17:10.216Z,75.35
2022-10-22T04:20:48.191Z,76.03
2022-10-22T04:24:25.908Z,75.86
2022-10-22T04:28:06.041Z,75.59
2022-10-22T04:31:41.092Z,75.38
2022-10-22T04:35:18.844Z,75.06
2022-10-22T04:39:01.367Z,74.88
2022-10-22T04:42:34.050Z,75.59
2022-10-22T04:46:33.171Z,75.85
2022-10-22T04:49:54.050Z,76.05
2022-10-22T04:53:50.819Z,75.88
2022-10-22T04:57:11.504Z,75.78
2022-10-22T05:00:49.126Z,75.63
2022-10-22T05:04:26.872Z,75.45
2022-10-22T05:08:23.347Z,75.20
2022-10-22T05:11:48.346Z,75.26
2022-10-22T05:15:21.474Z,75.47
2022-10-22T05:19:01.072Z,75.66
2022-10-22T05:22:55.662Z,75.87
2022-10-22T05:26:35.274Z,75.75
2022-10-22T05:29:55.724Z,75.65
2022-10-22T05:33:34.335Z,75.65
2022-10-22T05:37:29.922Z,75.32
2022-10-22T05:41:24.334Z,75.53
2022-10-22T05:45:05.544Z,75.72
2022-10-22T05:48:26.164Z,76.24
2022-10-22T05:52:03.812Z,76.72
2022-10-22T05:55:41.548Z,76.83
2022-10-22T05:59:19.190Z,76.61
2022-10-22T06:02:58.472Z,76.58
2022-10-22T06:06:38.823Z,76.76
2022-10-22T06:10:18.283Z,76.80
2022-10-22T06:13:51.460Z,76.99
2022-10-22T06:17:27.521Z,76.86
2022-10-22T06:21:24.563Z,76.79
2022-10-22T06:25:05.887Z,76.92
2022-10-22T06:28:45.460Z,77.13
2022-10-22T06:32:06.156Z,77.21
2022-10-22T06:35:45.268Z,77.12
2022-10-22T06:39:40.308Z,76.84
2022-10-22T06:43:01.093Z,76.37
2022-10-22T06:46:43.412Z,75.99
2022-10-22T06:50:35.907Z,76.04
2022-10-22T06:54:15.266Z,75.89
2022-10-22T06:57:39.054Z,75.55
2022-10-22T07:01:34.519Z,75.34
2022-10-22T07:04:56.118Z,75.04
2022-10-22T07:08:54.028Z,75.04
2022-10-22T07:12:16.163Z,75.33
2022-10-22T07:15:54.906Z,75.19
2022-10-22T07:19:31.551Z,74.70
2022-10-22T07:23:08.289Z,74.41
2022-10-22T07:27:08.121Z,74.24
2022-10-22T07:30:31.898Z,73.95
2022-10-22T07:34:28.360Z,74.21
2022-10-22T07:37:49.098Z,73.95
2022-10-22T07:41:45.531Z,73.79
2022-10-22T07:45:25.206Z,73.29
2022-10-22T07:49:04.865Z,72.58
2022-10-22T07:52:28.605Z,72.52
2022-10-22T07:56:03.683Z,72.34
2022-10-22T07:59:40.909Z,72.41
2022-10-22T08:03:18.721Z,72.27
2022-10-22T08:06:56.392Z,72.04
2022-10-22T08:10:35.145Z,71.40
2022-10-22T08:14:30.737Z,71.37
2022-10-22T08:17:51.584Z,70.98
2022-10-22T08:21:29.080Z,70.91
2022-10-22T08:25:26.279Z,71.45
2022-10-22T08:28:47.011Z,71.76
2022-10-22T08:32:24.756Z,71.47
2022-10-22T08:36:02.554Z,71.15
2022-10-22T08:39:58.851Z,70.90
2022-10-22T08:44:17.009Z,70.90
2022-10-22T08:48:22.177Z,70.61
2022-10-22T08:52:02.722Z,71.23
2022-10-22T08:55:25.480Z,70.93
2022-10-22T08:59:11.216Z,70.71
2022-10-22T09:03:40.610Z,70.57
2022-10-22T09:07:20.380Z,70.30
2022-10-22T09:10:48.041Z,70.44
2022-10-22T09:14:37.686Z,70.25
2022-10-22T09:18:45.641Z,70.72
2022-10-22T09:22:37.514Z,71.35
2022-10-22T09:26:00.317Z,70.95
2022-10-22T09:29:35.723Z,70.75
2022-10-22T09:33:26.126Z,70.78
2022-10-22T09:36:59.641Z,70.57
2022-10-22T09:40:28.708Z,70.02
2022-10-22T09:44:07.031Z,69.86
2022-10-22T09:48:01.012Z,70.39
2022-10-22T09:51:35.808Z,70.76
2022-10-22T09:55:14.886Z,70.59
2022-10-22T09:58:45.503Z,70.08
2022-10-22T10:02:37.419Z,70.10
2022-10-22T10:06:05.763Z,70.27
2022-10-22T10:09:37.779Z,70.55
2022-10-22T10:13:25.759Z,71.08
2022-10-22T10:17:00.365Z,71.08
2022-10-22T10:20:43.204Z,71.11
2022-10-22T10:24:17.690Z,71.18
2022-10-22T10:28:19.075Z,71.17
2022-10-22T10:32:12.007Z,71.55
2022-10-22T10:35:45.456Z,72.27
2022-10-22T10:39:35.608Z,72.85
2022-10-22T10:43:33.561Z,72.94
2022-10-22T10:47:35.087Z,73.24
2022-10-22T10:51:03.699Z,73.47
2022-10-22T10:54:55.430Z,73.75
2022-10-22T10:58:30.436Z,74.45
2022-10-22T11:02:13.237Z,74.96
2022-10-22T11:05:57.988Z,75.25
2022-10-22T11:09:21.311Z,75.47
2022-10-22T11:13:05.100Z,75.69
2022-10-22T11:16:40.478Z,76.00
2022-10-22T11:20:36.639Z,76.24
2022-10-22T11:24:41.729Z,76.27
2022-10-22T11:28:32.014Z,76.38
2022-10-22T11:32:18.823Z,76.62
2022-10-22T11:35:44.014Z,77.14
2022-10-22T11:39:35.233Z,77.75
2022-10-22T11:43:04.635Z,77.78
2022-10-22T11:46:45.715Z,77.71
2022-10-22T11:51:00.342Z,77.62
2022-10-22T11:54:42.782Z,77.73
2022-10-22T11:58:44.140Z,77.97
2022-10-22T12:02:24.411Z,78.42
2022-10-22T12:05:46.581Z,78.63
2022-10-22T12:09:42.638Z,78.55
2022-10-22T12:13:24.869Z,78.43
2022-10-22T12:16:57.208Z,78.52
2022-10-22T12:20:26.302Z,78.83
2022-10-22T12:24:03.258Z,78.99
2022-10-22T12:27:41.581Z,78.89
2022-10-22T12:31:38.878Z,79.22
2022-10-22T12:35:21.344Z,79.21
2022-10-22T12:38:47.238Z,79.50
2022-10-22T12:42:19.934Z,79.36
2022-10-22T12:45:59.210Z,79.51
2022-10-22T12:49:44.202Z,79.62
2022-10-22T12:53:20.845Z,80.24
2022-10-22T12:56:52.263Z,80.24
2022-10-22T13:00:48.479Z,80.09
2022-10-22T13:04:31.346Z,80.05
2022-10-22T13:08:17.518Z,80.37
2022-10-22T13:11:41.866Z,80.64
2022-10-22T13:15:28.172Z,80.65
2022-10-22T13:18:54.223Z,80.36
2022-10-22T13:22:37.768Z,80.19
2022-10-22T13:26:34.924Z,80.32
2022-10-22T13:29:57.655Z,80.65
2022-10-22T13:33:56.139Z,80.79
2022-10-22T13:37:38.000Z,80.53
2022-10-22T13:40:59.933Z,80.47
2022-10-22T13:44:36.687Z,80.69
2022-10-22T13:48:22.124Z,80.77
2022-10-22T13:52:21.323Z,80.92
2022-10-22T13:55:42.178Z,81.00
2022-10-22T13:59:22.756Z,80.74
2022-10-22T14:03:20.629Z,80.60
2022-10-22T14:07:03.980Z,80.36
2022-10-22T14:10:26.040Z,80.46
2022-10-22T14:14:05.060Z,80.84
2022-10-22T14:18:00.393Z,81.06
2022-10-22T14:21:40.004Z,80.85
2022-10-22T14:25:00.937Z,80.81
2022-10-22T14:29:13.366Z,80.79
2022-10-22T14:32:34.023Z,81.19
2022-10-22T14:36:14.522Z,81.85
2022-10-22T14:39:52.796Z,81.95
2022-10-22T14:43:31.103Z,81.90
2022-10-22T14:47:04.695Z,81.89
2022-10-22T14:50:44.296Z,82.32
2022-10-22T14:54:38.857Z,82.85
2022-10-22T14:57:59.252Z,82.75
2022-10-22T15:01:39.233Z,82.56
2022-10-22T15:05:33.458Z,82.54
2022-10-22T15:09:12.984Z,82.63
2022-10-22T15:12:34.227Z,82.83
2022-10-22T15:16:14.955Z,82.82
2022-10-22T15:20:08.807Z,82.73
2022-10-22T15:23:30.453Z,82.81
2022-10-22T15:27:08.178Z,83.16
2022-10-22T15:30:45.357Z,83.16
2022-10-22T15:34:27.339Z,82.97
2022-10-22T15:38:00.625Z,82.71
2022-10-22T15:41:59.904Z,82.55
2022-10-22T15:45:25.241Z,82.83
2022-10-22T15:48:59.117Z,83.05
2022-10-22T15:52:36.249Z,83.18
2022-10-22T15:56:13.869Z,82.97
2022-10-22T16:00:11.209Z,82.70
2022-10-22T16:03:36.369Z,82.87
2022-10-22T16:07:13.747Z,83.15
2022-10-22T16:10:51.353Z,83.53
2022-10-22T16:14:29.172Z,83.55
2022-10-22T16:18:06.671Z,83.50
2022-10-22T16:21:45.137Z,83.59
2022-10-22T16:25:22.077Z,83.75
2022-10-22T16:29:01.447Z,83.92
2022-10-22T16:32:37.348Z,83.97
2022-10-22T16:36:18.710Z,83.76
2022-10-22T16:39:52.649Z,83.57
2022-10-22T16:43:52.656Z,83.58
2022-10-22T16:47:32.094Z,83.85
2022-10-22T16:51:14.210Z,84.24
2022-10-22T16:54:34.868Z,84.32
2022-10-22T16:58:12.693Z,84.15
2022-10-22T17:01:50.364Z,83.72
2022-10-22T17:05:28.035Z,83.79
2022-10-22T17:09:05.797Z,83.86
2022-10-22T17:12:43.522Z,84.00
2022-10-22T17:16:23.633Z,83.89
2022-10-22T17:20:18.334Z,83.71
2022-10-22T17:23:39.613Z,83.88
2022-10-22T17:27:35.553Z,84.12
2022-10-22T17:31:08.592Z,84.12
2022-10-22T17:34:34.046Z,84.26
2022-10-22T17:38:13.021Z,84.03
2022-10-22T17:42:08.202Z,84.16
2022-10-22T17:45:28.733Z,84.83
2022-10-22T17:49:15.023Z,84.98
2022-10-22T17:52:44.406Z,84.88
2022-10-22T17:56:24.754Z,84.86
2022-10-22T17:59:59.403Z,85.29
2022-10-22T18:04:01.405Z,85.71
2022-10-22T18:07:22.053Z,85.83
2022-10-22T18:11:21.729Z,86.21
2022-10-22T18:15:02.742Z,86.04
2022-10-22T18:18:46.771Z,86.34
2022-10-22T18:22:26.785Z,86.22
2022-10-22T18:26:06.301Z,86.60
2022-10-22T18:29:49.241Z,87.29
2022-10-22T18:33:28.542Z,87.10
2022-10-22T18:37:08.363Z,87.58
2022-10-22T18:40:49.319Z,87.28
2022-10-22T18:44:13.820Z,87.46
2022-10-22T18:47:48.163Z,87.49
2022-10-22T18:51:28.404Z,87.75
2022-10-22T18:55:22.200Z,88.29
2022-10-22T18:58:46.481Z,88.14
2022-10-22T19:02:20.906Z,88.28
2022-10-22T19:06:26.562Z,88.18
2022-10-22T19:09:47.549Z,88.69
2022-10-22T19:13:25.774Z,88.66
2022-10-22T19:17:02.830Z,88.94
2022-10-22T19:20:40.890Z,88.99
2022-10-22T19:24:19.646Z,89.32
2022-10-22T19:27:55.857Z,89.43
2022-10-22T19:31:33.713Z,89.21
2022-10-22T19:35:29.906Z,89.46
2022-10-22T19:38:53.983Z,89.58
2022-10-22T19:42:29.332Z,89.57
2022-10-22T19:46:07.050Z,90.38
2022-10-22T19:50:02.710Z,90.71
2022-10-22T19:53:42.512Z,91.08
2022-10-22T20:01:04.650Z,91.18
2022-10-22T20:04:27.974Z,91.22
2022-10-22T20:08:03.133Z,91.18
2022-10-22T20:11:41.101Z,91.47
2022-10-22T20:15:18.877Z,91.39
2022-10-22T20:19:00.828Z,91.27
2022-10-22T20:22:55.224Z,91.28
2022-10-22T20:26:15.905Z,91.58
2022-10-22T20:29:53.744Z,91.56
2022-10-22T20:33:31.682Z,91.58
2022-10-22T20:37:09.150Z,91.66
2022-10-22T20:41:11.943Z,91.93
2022-10-22T20:44:32.705Z,91.79
2022-10-22T20:48:10.637Z,91.69
2022-10-22T20:51:47.838Z,91.76
2022-10-22T20:55:26.034Z,91.62
2022-10-22T20:59:08.382Z,91.37
2022-10-22T21:02:40.930Z,91.20
2022-10-22T21:06:39.655Z,91.34
2022-10-22T21:10:00.433Z,91.56
2022-10-22T21:13:38.621Z,91.78
2022-10-22T21:17:35.141Z,91.82
2022-10-22T21:21:16.967Z,92.15
2022-10-22T21:24:37.403Z,92.16
2022-10-22T21:28:15.268Z,92.04
2022-10-22T21:31:53.430Z,92.22
2022-10-22T21:35:32.508Z,92.07
2022-10-22T21:39:08.680Z,92.15
2022-10-22T21:43:04.686Z,92.07
2022-10-22T21:46:27.395Z,92.34
2022-10-22T21:50:03.538Z,92.47
2022-10-22T21:53:41.142Z,92.31
2022-10-22T21:57:18.282Z,92.19
2022-10-22T22:00:58.231Z,92.15
2022-10-22T22:04:33.867Z,92.57
2022-10-22T22:08:30.559Z,93.03
2022-10-22T22:11:51.597Z,92.92
2022-10-22T22:15:31.527Z,92.95
2022-10-22T22:19:10.203Z,92.94
2022-10-22T22:22:44.872Z,92.81
2022-10-22T22:26:28.592Z,92.67
2022-10-22T22:29:59.912Z,92.37
2022-10-22T22:34:00.666Z,92.33
2022-10-22T22:37:21.732Z,92.38
2022-10-22T22:41:00.096Z,92.45
2022-10-22T22:44:55.450Z,92.42
2022-10-22T22:48:16.110Z,92.62
2022-10-22T22:51:53.811Z,92.26
2022-10-22T22:55:32.116Z,91.89
2022-10-22T22:59:27.939Z,91.67
2022-10-22T23:03:07.405Z,91.68
2022-10-22T23:06:31.526Z,91.72
2022-10-22T23:10:05.853Z,91.87
2022-10-22T23:13:44.050Z,91.98
2022-10-22T23:17:20.943Z,92.16
2022-10-22T23:20:58.407Z,92.26
2022-10-22T23:24:55.182Z,92.22
2022-10-22T23:28:15.815Z,92.24
2022-10-22T23:32:16.379Z,92.41
2022-10-22T23:35:56.015Z,92.42
2022-10-22T23:39:36.671Z,92.52
2022-10-22T23:42:57.139Z,92.79
2022-10-22T23:46:35.807Z,92.60
2022-10-22T23:50:13.102Z,92.37
2022-10-22T23:54:01.562Z,92.17
2022-10-22T23:57:27.823Z,92.25
